Time;durP1;ratioP1;P1;durP2;ratioP2;P2;SDS_P1;SDS_P2;PMS_P1;PMS_P2;Temp;Humidity;BMP_temperature;BMP_pressure;BME280_temperature;BME280_humidity;BME280_pressure;Samples;Min_cycle;Max_cycle;Signal;HPM_P1;HPM_P2
2023/12/23 00:01:29;;;;;;;2.33;0.45;;;11.00;99.90;;;;;;5095702;28;20062;-69
2023/12/23 00:03:55;;;;;;;2.05;1.45;;;11.10;99.90;;;;;;5096023;28;20437;-70
2023/12/23 00:06:21;;;;;;;8.20;0.28;;;11.10;99.90;;;;;;5095795;28;20036;-69
2023/12/23 00:08:47;;;;;;;4.07;1.85;;;11.10;99.90;;;;;;5085797;28;20039;-69
2023/12/23 00:11:13;;;;;;;7.20;1.42;;;11.10;99.90;;;;;;5091211;28;20016;-69
2023/12/23 00:13:39;;;;;;;1.65;0.85;;;11.10;99.90;;;;;;5095868;28;20365;-70
2023/12/23 00:16:06;;;;;;;2.55;0.30;;;11.10;99.90;;;;;;5095663;28;20039;-69
2023/12/23 00:18:32;;;;;;;2.95;1.42;;;11.20;99.90;;;;;;5095653;28;20022;-70
2023/12/23 00:20:58;;;;;;;7.68;0.63;;;11.10;99.90;;;;;;5095170;28;20027;-68
2023/12/23 00:23:24;;;;;;;1.73;1.25;;;11.10;99.90;;;;;;5095213;28;20047;-68
2023/12/23 00:25:49;;;;;;;5.00;0.85;;;11.20;99.90;;;;;;5095492;28;20469;-68
2023/12/23 00:28:15;;;;;;;5.90;0.98;;;11.20;99.90;;;;;;5095206;28;20028;-69
2023/12/23 00:30:41;;;;;;;5.10;0.68;;;11.20;99.90;;;;;;5095292;28;20430;-70
2023/12/23 00:33:08;;;;;;;5.15;1.15;;;11.20;99.90;;;;;;5093691;28;20122;-70
2023/12/23 00:35:34;;;;;;;2.97;0.43;;;11.20;99.90;;;;;;5053710;28;20029;-69
2023/12/23 00:38:00;;;;;;;14.60;0.80;;;11.20;99.90;;;;;;5067029;28;20021;-69
2023/12/23 00:40:26;;;;;;;6.30;0.40;;;11.20;99.90;;;;;;5092129;28;20024;-68
2023/12/23 00:42:53;;;;;;;2.00;0.50;;;11.20;99.90;;;;;;5072607;28;20082;-68
2023/12/23 00:45:18;;;;;;;4.15;1.33;;;11.20;99.90;;;;;;5073402;28;20016;-68
2023/12/23 00:47:44;;;;;;;0.47;0.30;;;11.20;99.90;;;;;;5094609;28;20077;-69
2023/12/23 00:50:10;;;;;;;7.78;1.40;;;11.20;99.90;;;;;;5094317;28;20101;-70
2023/12/23 00:52:36;;;;;;;11.18;1.10;;;11.20;99.90;;;;;;5080310;28;20032;-69
2023/12/23 00:55:02;;;;;;;0.28;0.28;;;11.10;99.90;;;;;;5094971;28;20052;-70
2023/12/23 00:57:28;;;;;;;4.55;0.90;;;11.10;99.90;;;;;;5094715;28;20024;-70
2023/12/23 00:59:57;;;;;;;3.72;0.52;;;11.10;99.90;;;;;;5094825;28;20397;-69
2023/12/23 01:02:23;;;;;;;4.88;0.93;;;11.10;99.90;;;;;;5066092;28;20020;-70
2023/12/23 01:04:49;;;;;;;3.00;0.30;;;11.10;99.90;;;;;;5093459;28;20024;-69
2023/12/23 01:07:15;;;;;;;3.63;1.90;;;11.10;99.90;;;;;;5092918;28;20147;-69
2023/12/23 01:09:41;;;;;;;9.95;1.63;;;11.10;99.90;;;;;;5078890;28;20039;-70
2023/12/23 01:12:07;;;;;;;6.50;1.45;;;11.10;99.90;;;;;;5093238;28;20055;-69
2023/12/23 01:14:32;;;;;;;3.72;0.95;;;11.10;99.90;;;;;;5094526;28;20020;-70
2023/12/23 01:16:58;;;;;;;1.90;1.02;;;11.10;99.90;;;;;;5094442;28;20024;-69
2023/12/23 01:19:24;;;;;;;0.95;0.47;;;11.10;99.90;;;;;;5093040;28;20060;-69
2023/12/23 01:21:52;;;;;;;0.15;0.15;;;11.00;99.90;;;;;;5088391;28;20048;-69
2023/12/23 01:24:17;;;;;;;7.88;0.82;;;11.00;99.90;;;;;;5073975;28;20082;-70
2023/12/23 01:26:44;;;;;;;10.57;1.23;;;11.00;99.90;;;;;;5083445;28;20480;-70
2023/12/23 01:29:09;;;;;;;4.90;1.35;;;11.00;99.90;;;;;;5063524;28;20445;-70
2023/12/23 01:31:36;;;;;;;4.43;2.22;;;11.00;99.90;;;;;;5089502;28;20122;-69
2023/12/23 01:34:01;;;;;;;3.35;0.40;;;11.00;99.90;;;;;;5092799;28;20154;-69
2023/12/23 01:36:29;;;;;;;4.50;0.93;;;11.00;99.90;;;;;;5075973;28;20089;-68
2023/12/23 01:38:55;;;;;;;6.57;1.27;;;11.00;99.90;;;;;;5093936;28;20460;-70
2023/12/23 01:41:21;;;;;;;1.75;0.43;;;11.00;99.90;;;;;;5094095;28;20031;-70
2023/12/23 01:43:47;;;;;;;1.52;0.73;;;11.00;99.90;;;;;;5093698;28;20494;-70
2023/12/23 01:46:13;;;;;;;6.63;1.05;;;11.00;99.90;;;;;;5094116;28;20028;-68
2023/12/23 01:48:42;;;;;;;1.73;0.68;;;11.00;99.90;;;;;;5075730;28;20032;-69
2023/12/23 01:51:11;;;;;;;4.22;0.82;;;10.90;99.90;;;;;;5093433;28;20069;-70
2023/12/23 01:53:37;;;;;;;5.35;0.63;;;10.90;99.90;;;;;;5092291;28;20027;-69
2023/12/23 01:56:03;;;;;;;1.45;0.38;;;11.00;99.90;;;;;;5093726;28;20031;-69
2023/12/23 01:58:29;;;;;;;1.85;1.30;;;10.90;99.90;;;;;;5092280;28;20050;-70
2023/12/23 02:00:55;;;;;;;3.78;0.68;;;10.90;99.90;;;;;;5065184;28;20027;-70
2023/12/23 02:03:21;;;;;;;0.47;0.30;;;10.90;99.90;;;;;;5093867;28;20024;-70
2023/12/23 02:05:47;;;;;;;1.10;0.73;;;10.80;99.90;;;;;;5091985;28;20080;-68
2023/12/23 02:08:16;;;;;;;1.08;1.08;;;10.90;99.90;;;;;;5086895;28;20037;-69
2023/12/23 02:10:59;;;;;;;3.63;0.73;;;10.90;99.90;;;;;;5093419;22;20044;-69
2023/12/23 02:13:27;;;;;;;10.85;1.15;;;10.80;99.90;;;;;;5047515;28;20133;-69
2023/12/23 02:15:54;;;;;;;4.80;1.63;;;10.80;99.90;;;;;;5045452;28;20025;-69
2023/12/23 02:18:21;;;;;;;14.07;1.33;;;10.80;99.90;;;;;;5053148;28;20032;-70
2023/12/23 02:20:50;;;;;;;0.30;0.30;;;10.80;99.90;;;;;;5052717;28;20362;-70
2023/12/23 02:23:17;;;;;;;3.03;0.85;;;10.90;99.90;;;;;;5051754;28;20020;-69
2023/12/23 02:25:49;;;;;;;0.85;0.63;;;10.80;99.90;;;;;;5051834;28;20126;-69
2023/12/23 02:28:17;;;;;;;9.68;2.13;;;10.90;99.90;;;;;;5038664;28;20109;-69
2023/12/23 02:30:46;;;;;;;5.75;2.38;;;10.80;99.90;;;;;;5052781;28;20024;-69
2023/12/23 02:33:12;;;;;;;1.02;0.55;;;10.80;99.90;;;;;;5052847;28;20029;-69
2023/12/23 02:35:38;;;;;;;1.00;0.68;;;10.80;99.90;;;;;;5051284;28;20048;-70
2023/12/23 02:38:03;;;;;;;0.98;0.68;;;10.80;99.90;;;;;;5052972;28;20465;-70
2023/12/23 02:40:29;;;;;;;4.75;1.55;;;10.90;99.90;;;;;;5042945;28;20076;-69
2023/12/23 02:42:55;;;;;;;4.40;1.05;;;10.80;99.90;;;;;;5034952;28;20087;-69
2023/12/23 02:45:21;;;;;;;18.15;2.47;;;10.80;99.90;;;;;;5024722;28;20041;-70
2023/12/23 02:47:48;;;;;;;4.05;0.68;;;10.80;99.90;;;;;;5052737;28;20132;-68
2023/12/23 02:50:14;;;;;;;0.45;0.45;;;10.80;99.90;;;;;;5067590;28;20037;-69
2023/12/23 02:52:40;;;;;;;0.88;0.68;;;10.70;99.90;;;;;;5052024;28;20013;-70
2023/12/23 02:55:07;;;;;;;3.30;0.10;;;10.80;99.90;;;;;;5051377;28;20083;-69
2023/12/23 02:57:34;;;;;;;1.98;0.47;;;10.70;99.90;;;;;;5051309;28;20405;-69
2023/12/23 03:00:00;;;;;;;6.18;0.90;;;10.70;99.90;;;;;;5051321;28;20021;-70
2023/12/23 03:02:26;;;;;;;7.45;1.63;;;10.70;99.90;;;;;;5051120;28;20036;-69
2023/12/23 03:04:51;;;;;;;10.73;1.48;;;10.70;99.90;;;;;;5052449;28;20074;-70
2023/12/23 03:07:17;;;;;;;1.98;0.20;;;10.70;99.90;;;;;;5043341;28;20028;-69
2023/12/23 03:09:43;;;;;;;0.52;0.52;;;10.70;99.90;;;;;;5054155;28;20041;-70
2023/12/23 03:12:10;;;;;;;3.10;1.50;;;10.70;99.90;;;;;;5053934;28;20033;-69
2023/12/23 03:14:36;;;;;;;19.67;0.52;;;10.60;99.90;;;;;;5043733;28;20021;-70
2023/12/23 03:17:03;;;;;;;1.00;0.50;;;10.60;99.90;;;;;;5059631;28;20029;-69
2023/12/23 03:19:29;;;;;;;1.70;0.55;;;10.70;99.90;;;;;;5041224;28;20032;-70
2023/12/23 03:21:55;;;;;;;0.40;0.40;;;10.70;99.90;;;;;;5054783;28;20155;-69
2023/12/23 03:24:21;;;;;;;7.75;0.40;;;10.70;99.90;;;;;;5054900;28;20029;-70
2023/12/23 03:26:47;;;;;;;1.50;0.90;;;10.60;99.90;;;;;;5056265;28;20025;-69
2023/12/23 03:29:13;;;;;;;2.25;0.60;;;10.60;99.90;;;;;;5056343;28;20037;-69
2023/12/23 03:31:39;;;;;;;0.35;0.35;;;10.60;99.90;;;;;;5054672;28;20047;-70
2023/12/23 03:34:05;;;;;;;10.95;1.35;;;10.60;99.90;;;;;;5055871;28;20037;-70
2023/12/23 03:36:30;;;;;;;2.80;0.82;;;10.60;99.90;;;;;;5048681;28;20026;-69
2023/12/23 03:38:56;;;;;;;2.83;0.85;;;10.60;99.90;;;;;;5027730;28;20062;-69
2023/12/23 03:41:22;;;;;;;3.05;1.17;;;10.60;99.90;;;;;;5044995;28;20382;-69
2023/12/23 03:43:48;;;;;;;3.55;1.25;;;10.60;99.90;;;;;;5054527;28;20115;-68
2023/12/23 03:46:18;;;;;;;1.10;0.52;;;10.60;99.90;;;;;;5054833;28;20200;-69
2023/12/23 03:48:44;;;;;;;3.95;2.10;;;10.50;99.90;;;;;;5055993;28;20037;-69
2023/12/23 03:51:10;;;;;;;2.67;1.67;;;10.60;99.90;;;;;;5055765;28;20025;-68
2023/12/23 03:53:36;;;;;;;0.85;0.35;;;10.60;99.90;;;;;;5054652;28;20116;-69
2023/12/23 03:56:01;;;;;;;5.35;1.30;;;10.60;99.90;;;;;;5054289;28;20040;-70
2023/12/23 03:58:27;;;;;;;0.85;0.57;;;10.60;99.90;;;;;;5056080;28;20021;-69
2023/12/23 04:00:53;;;;;;;0.95;0.60;;;10.70;99.90;;;;;;5055087;28;20075;-69
2023/12/23 04:03:19;;;;;;;7.03;1.83;;;10.70;99.90;;;;;;5055720;28;20053;-70
2023/12/23 04:05:45;;;;;;;0.47;0.45;;;10.60;99.90;;;;;;5055489;28;20496;-68
2023/12/23 04:08:11;;;;;;;3.33;1.38;;;10.60;99.90;;;;;;5054437;28;20499;-69
2023/12/23 04:10:36;;;;;;;0.00;0.00;;;10.60;99.90;;;;;;5054080;28;20041;-69
2023/12/23 04:13:02;;;;;;;4.32;1.33;;;10.60;99.90;;;;;;5053884;28;20029;-70
2023/12/23 04:15:28;;;;;;;5.20;1.45;;;10.60;99.90;;;;;;5053888;28;20025;-69
2023/12/23 04:17:54;;;;;;;0.35;0.32;;;10.50;99.90;;;;;;5055305;28;20025;-70
2023/12/23 04:20:20;;;;;;;10.43;1.42;;;10.60;99.90;;;;;;5052931;28;20044;-69
2023/12/23 04:22:48;;;;;;;4.43;1.13;;;10.50;99.90;;;;;;5054881;28;20485;-69
2023/12/23 04:25:14;;;;;;;2.15;0.80;;;10.60;99.90;;;;;;5055267;28;20048;-69
2023/12/23 04:27:41;;;;;;;16.85;1.38;;;10.50;99.90;;;;;;5053935;28;20032;-70
2023/12/23 04:30:07;;;;;;;8.07;1.50;;;10.60;99.90;;;;;;5053319;28;20441;-70
2023/12/23 04:32:33;;;;;;;5.20;2.15;;;10.60;99.90;;;;;;5053592;28;20063;-70
2023/12/23 04:35:00;;;;;;;1.60;1.02;;;10.50;99.90;;;;;;5053932;28;20036;-68
2023/12/23 04:37:27;;;;;;;0.85;0.43;;;10.60;99.90;;;;;;5053726;28;20138;-70
2023/12/23 04:39:53;;;;;;;6.13;0.85;;;10.60;99.90;;;;;;5070408;28;20498;-68
2023/12/23 04:42:19;;;;;;;1.13;0.47;;;10.60;99.90;;;;;;5053387;28;20029;-70
2023/12/23 04:44:46;;;;;;;3.35;1.23;;;10.60;99.90;;;;;;5053476;28;20040;-69
2023/12/23 04:47:12;;;;;;;3.10;1.35;;;10.70;99.90;;;;;;5053416;28;20388;-68
2023/12/23 04:49:38;;;;;;;0.57;0.35;;;10.70;99.90;;;;;;5054793;28;20124;-69
2023/12/23 04:52:05;;;;;;;0.32;0.10;;;10.70;99.90;;;;;;5053378;28;20025;-69
2023/12/23 04:54:32;;;;;;;2.40;0.35;;;10.70;99.90;;;;;;5053218;28;20132;-69
2023/12/23 04:56:58;;;;;;;0.10;0.10;;;10.80;99.90;;;;;;5053168;28;20032;-69
2023/12/23 04:59:24;;;;;;;2.95;0.98;;;10.70;99.90;;;;;;5053178;28;20021;-69
2023/12/23 05:01:50;;;;;;;6.20;1.08;;;10.70;99.90;;;;;;5053223;28;20048;-70
2023/12/23 05:04:16;;;;;;;2.65;0.88;;;10.70;99.90;;;;;;5052779;28;20021;-69
2023/12/23 05:06:42;;;;;;;0.52;0.45;;;10.70;99.90;;;;;;5069835;28;20036;-70
2023/12/23 05:09:08;;;;;;;7.97;1.00;;;10.70;99.90;;;;;;5052842;28;20041;-69
2023/12/23 05:11:33;;;;;;;10.55;2.17;;;10.70;99.90;;;;;;5054180;28;20072;-69
2023/12/23 05:13:59;;;;;;;11.90;0.82;;;10.60;99.90;;;;;;5052820;28;20025;-68
2023/12/23 05:16:25;;;;;;;7.65;0.95;;;10.70;99.90;;;;;;5051376;28;20013;-69
2023/12/23 05:18:51;;;;;;;2.42;1.00;;;10.60;99.90;;;;;;5052801;28;21424;-69
2023/12/23 05:21:17;;;;;;;19.73;3.58;;;10.70;99.90;;;;;;5081776;22;20047;-70
2023/12/23 05:23:43;;;;;;;6.13;0.20;;;10.70;99.90;;;;;;5094327;28;20103;-69
2023/12/23 05:26:09;;;;;;;1.50;1.15;;;10.70;99.90;;;;;;5093345;28;20028;-69
2023/12/23 05:28:35;;;;;;;5.82;1.50;;;10.70;99.90;;;;;;5092328;28;20493;-69
2023/12/23 05:31:00;;;;;;;2.70;1.65;;;10.70;99.90;;;;;;5092917;28;20434;-70
2023/12/23 05:33:26;;;;;;;2.75;1.27;;;10.70;99.90;;;;;;5093549;28;20027;-70
2023/12/23 05:35:52;;;;;;;1.27;0.77;;;10.70;99.90;;;;;;5094303;28;20032;-70
2023/12/23 05:38:19;;;;;;;3.60;0.85;;;10.80;99.90;;;;;;5065738;28;20047;-70
2023/12/23 05:40:45;;;;;;;0.13;0.10;;;10.70;99.90;;;;;;5094136;28;20040;-70
2023/12/23 05:43:12;;;;;;;1.60;0.77;;;10.80;99.90;;;;;;5093620;28;20032;-69
2023/12/23 05:45:38;;;;;;;1.77;0.57;;;10.70;99.90;;;;;;5093899;28;20108;-69
2023/12/23 05:48:04;;;;;;;4.75;1.25;;;10.70;99.90;;;;;;5093714;28;20028;-70
2023/12/23 05:50:30;;;;;;;0.32;0.20;;;10.80;99.90;;;;;;5093600;28;20093;-70
2023/12/23 05:52:56;;;;;;;1.27;0.28;;;10.80;99.90;;;;;;5083767;28;20036;-70
2023/12/23 05:55:22;;;;;;;7.47;1.45;;;10.80;99.90;;;;;;5089590;28;20089;-69
2023/12/23 05:57:48;;;;;;;5.57;1.20;;;10.90;99.90;;;;;;5093566;28;20020;-70
2023/12/23 06:00:14;;;;;;;1.58;1.02;;;10.90;99.90;;;;;;5093619;28;20517;-71
2023/12/23 06:02:40;;;;;;;3.50;1.55;;;10.90;99.90;;;;;;5093540;28;20514;-69
2023/12/23 06:05:06;;;;;;;1.52;1.27;;;10.90;99.90;;;;;;5093526;28;20027;-69
2023/12/23 06:07:34;;;;;;;5.95;1.15;;;10.90;99.90;;;;;;5092531;28;20020;-69
2023/12/23 06:10:00;;;;;;;10.70;1.95;;;10.80;99.90;;;;;;5093394;28;20374;-69
2023/12/23 06:12:27;;;;;;;0.90;0.50;;;10.90;99.90;;;;;;5093236;28;20055;-71
2023/12/23 06:14:56;;;;;;;1.08;0.45;;;10.90;99.90;;;;;;5089010;28;20028;-70
2023/12/23 06:17:22;;;;;;;3.97;1.65;;;10.90;99.90;;;;;;5066406;28;20115;-69
2023/12/23 06:19:48;;;;;;;3.63;1.35;;;10.90;99.90;;;;;;5093208;28;20111;-71
2023/12/23 06:22:14;;;;;;;17.85;1.70;;;10.90;99.90;;;;;;5097134;22;20079;-70
2023/12/23 06:24:40;;;;;;;4.30;1.33;;;10.90;99.90;;;;;;5093182;28;20055;-69
2023/12/23 06:27:05;;;;;;;6.97;1.40;;;10.90;99.90;;;;;;5092999;28;20031;-69
2023/12/23 06:29:31;;;;;;;8.30;1.50;;;10.90;99.90;;;;;;5093172;28;20031;-70
2023/12/23 06:31:59;;;;;;;8.25;2.17;;;10.90;99.90;;;;;;5091816;28;20028;-69
2023/12/23 06:34:25;;;;;;;3.55;1.20;;;10.90;99.90;;;;;;5093170;28;20084;-71
2023/12/23 06:36:51;;;;;;;12.77;4.55;;;10.80;99.90;;;;;;5077716;28;20031;-70
2023/12/23 06:39:17;;;;;;;5.82;0.98;;;10.80;99.90;;;;;;5093135;28;20032;-69
2023/12/23 06:41:45;;;;;;;1.75;1.25;;;10.80;99.90;;;;;;5092730;28;20028;-69
2023/12/23 06:44:11;;;;;;;2.83;1.10;;;10.90;99.90;;;;;;5084550;28;20028;-69
2023/12/23 06:46:37;;;;;;;3.38;0.35;;;10.80;99.90;;;;;;5085480;28;20114;-70
2023/12/23 06:49:03;;;;;;;0.25;0.20;;;10.80;99.90;;;;;;5092875;28;20069;-70
2023/12/23 06:51:29;;;;;;;2.92;0.43;;;10.80;99.90;;;;;;5092747;28;20553;-69
2023/12/23 06:53:56;;;;;;;5.38;1.55;;;10.90;99.90;;;;;;5091899;28;20028;-70
2023/12/23 06:56:22;;;;;;;2.70;0.75;;;10.80;99.90;;;;;;5092619;28;20441;-69
2023/12/23 06:58:48;;;;;;;2.95;1.85;;;10.90;99.90;;;;;;5092948;28;20062;-70
2023/12/23 07:01:14;;;;;;;2.35;0.52;;;10.90;99.90;;;;;;5092653;28;20493;-70
2023/12/23 07:03:41;;;;;;;1.25;0.65;;;10.80;99.90;;;;;;5091584;28;20031;-70
2023/12/23 07:06:12;;;;;;;2.22;0.50;;;10.90;99.90;;;;;;5092927;28;20028;-69
2023/12/23 07:08:39;;;;;;;20.17;2.92;;;10.90;99.90;;;;;;5093354;28;20350;-69
2023/12/23 07:11:05;;;;;;;4.13;0.98;;;10.90;99.90;;;;;;5092195;28;20028;-69
2023/12/23 07:13:32;;;;;;;4.13;0.98;;;10.90;99.90;;;;;;5093087;28;20031;-70
2023/12/23 07:15:57;;;;;;;2.47;0.93;;;10.90;99.90;;;;;;5079033;28;20116;-70
2023/12/23 07:18:23;;;;;;;7.43;1.00;;;10.90;99.90;;;;;;5092249;28;20050;-71
2023/12/23 07:20:49;;;;;;;9.23;1.48;;;10.90;99.90;;;;;;5092447;28;20024;-68
2023/12/23 07:23:15;;;;;;;3.65;1.00;;;11.00;99.90;;;;;;5084665;28;20048;-68
2023/12/23 07:25:41;;;;;;;1.88;0.88;;;11.00;99.90;;;;;;5071222;28;20103;-70
2023/12/23 07:28:06;;;;;;;0.73;0.45;;;11.00;99.90;;;;;;5092556;28;20107;-70
2023/12/23 07:30:32;;;;;;;7.00;1.27;;;11.10;99.90;;;;;;5092570;28;20044;-69
2023/12/23 07:32:58;;;;;;;3.13;1.50;;;11.10;99.90;;;;;;5092601;28;20020;-70
2023/12/23 07:35:25;;;;;;;5.82;1.50;;;11.00;99.90;;;;;;5092466;28;20031;-69
2023/12/23 07:37:51;;;;;;;2.80;1.00;;;11.10;99.90;;;;;;5069027;28;20025;-69
2023/12/23 07:40:17;;;;;;;3.88;0.90;;;11.00;99.90;;;;;;5052030;28;20025;-70
2023/12/23 07:42:43;;;;;;;6.05;1.40;;;11.00;99.90;;;;;;5071790;28;20030;-69
2023/12/23 07:45:09;;;;;;;8.20;1.95;;;11.10;99.90;;;;;;5092289;28;20110;-69
2023/12/23 07:47:35;;;;;;;2.13;0.93;;;11.00;99.90;;;;;;5091178;28;20020;-69
2023/12/23 07:50:01;;;;;;;5.55;0.43;;;11.00;99.90;;;;;;5092273;28;20044;-69
2023/12/23 07:52:27;;;;;;;4.57;0.90;;;11.00;99.90;;;;;;5092006;28;20032;-69
2023/12/23 07:54:53;;;;;;;2.78;0.73;;;11.00;99.90;;;;;;5091293;28;20043;-69
2023/12/23 07:57:19;;;;;;;4.28;1.45;;;11.00;99.90;;;;;;5095608;28;20146;-68
2023/12/23 07:59:45;;;;;;;1.33;0.95;;;11.00;99.90;;;;;;5095955;28;20111;-69
2023/12/23 08:02:11;;;;;;;0.28;0.25;;;11.00;99.90;;;;;;5095439;28;20081;-69
2023/12/23 08:04:37;;;;;;;4.72;1.13;;;11.00;99.90;;;;;;5095991;28;20035;-70
2023/12/23 08:07:03;;;;;;;9.27;0.68;;;11.00;99.90;;;;;;5095879;28;20056;-70
2023/12/23 08:09:29;;;;;;;9.68;1.40;;;11.10;99.90;;;;;;5067445;28;20109;-69
2023/12/23 08:11:55;;;;;;;0.20;0.20;;;11.00;99.90;;;;;;5095414;28;20063;-69
2023/12/23 08:14:21;;;;;;;1.25;1.15;;;11.00;99.90;;;;;;5067000;28;20016;-69
2023/12/23 08:16:46;;;;;;;3.22;0.82;;;11.00;99.90;;;;;;5081707;28;20066;-69
2023/12/23 08:19:13;;;;;;;1.80;0.90;;;11.10;99.90;;;;;;5083392;28;20049;-70
2023/12/23 08:21:39;;;;;;;8.45;0.93;;;11.00;99.90;;;;;;5093551;28;20036;-69
2023/12/23 08:24:05;;;;;;;2.70;1.23;;;11.10;99.90;;;;;;5094147;28;20035;-69
2023/12/23 08:26:31;;;;;;;5.93;1.52;;;11.10;99.90;;;;;;5095028;28;20036;-70
2023/12/23 08:28:57;;;;;;;4.25;1.20;;;11.10;99.90;;;;;;5095493;28;20106;-70
2023/12/23 08:31:23;;;;;;;3.40;0.95;;;11.10;99.90;;;;;;5095127;28;20034;-69
2023/12/23 08:33:49;;;;;;;1.60;0.45;;;11.10;99.90;;;;;;5095497;28;20020;-68
2023/12/23 08:36:15;;;;;;;1.58;0.30;;;11.20;99.90;;;;;;5094121;28;20369;-70
2023/12/23 08:38:41;;;;;;;2.15;0.98;;;11.20;99.90;;;;;;5062050;28;20103;-70
2023/12/23 08:41:07;;;;;;;1.95;1.15;;;11.20;99.90;;;;;;5085358;28;20099;-68
2023/12/23 08:43:33;;;;;;;2.38;0.85;;;11.20;99.90;;;;;;5093842;28;20114;-70
2023/12/23 08:45:59;;;;;;;2.65;1.17;;;11.30;99.90;;;;;;5095179;28;20020;-69
2023/12/23 08:48:25;;;;;;;0.28;0.03;;;11.30;99.90;;;;;;5080658;28;20504;-70
2023/12/23 08:50:51;;;;;;;1.63;0.90;;;11.30;99.90;;;;;;5094774;28;20028;-69
2023/12/23 08:53:18;;;;;;;1.38;0.90;;;11.30;99.90;;;;;;5095063;28;20024;-69
2023/12/23 08:55:44;;;;;;;11.82;2.58;;;11.30;99.90;;;;;;5094778;28;20032;-68
2023/12/23 08:58:12;;;;;;;2.55;0.85;;;11.30;99.90;;;;;;5095000;28;20100;-70
2023/12/23 09:00:38;;;;;;;7.45;1.23;;;11.30;99.90;;;;;;5091699;28;20400;-70
2023/12/23 09:03:04;;;;;;;1.13;0.80;;;11.40;99.90;;;;;;5083848;28;20039;-70
2023/12/23 09:05:30;;;;;;;9.65;1.73;;;11.30;99.90;;;;;;5094419;28;20089;-69
2023/12/23 09:07:56;;;;;;;3.80;1.13;;;11.40;99.90;;;;;;5093980;28;20046;-70
2023/12/23 09:10:22;;;;;;;1.17;0.77;;;11.30;99.90;;;;;;5094443;28;20044;-70
2023/12/23 09:12:48;;;;;;;0.43;0.40;;;11.30;99.90;;;;;;5094543;28;20073;-71
2023/12/23 09:15:14;;;;;;;4.72;1.48;;;11.30;99.90;;;;;;5086789;28;20024;-70
2023/12/23 09:17:40;;;;;;;1.35;0.98;;;11.30;99.90;;;;;;5088034;28;20094;-69
2023/12/23 09:20:06;;;;;;;1.75;0.70;;;11.30;99.90;;;;;;5082998;28;20392;-70
2023/12/23 09:22:32;;;;;;;0.50;0.30;;;11.30;99.90;;;;;;5065941;28;20033;-71
2023/12/23 09:24:58;;;;;;;4.75;1.00;;;11.30;99.90;;;;;;5090574;28;20081;-69
2023/12/23 09:27:27;;;;;;;3.08;0.60;;;11.30;99.90;;;;;;5093900;28;20054;-69
2023/12/23 09:29:55;;;;;;;10.02;1.10;;;11.30;99.90;;;;;;5093995;28;20046;-69
2023/12/23 09:32:21;;;;;;;4.50;1.23;;;11.30;99.90;;;;;;5094118;28;20031;-70
2023/12/23 09:34:49;;;;;;;6.60;0.98;;;11.30;99.90;;;;;;5091672;28;20123;-70
2023/12/23 09:37:15;;;;;;;0.85;0.47;;;11.30;99.90;;;;;;5053789;28;20029;-68
2023/12/23 09:39:42;;;;;;;5.78;1.10;;;11.30;99.90;;;;;;5053985;28;20052;-69
2023/12/23 09:42:09;;;;;;;4.03;0.60;;;11.30;99.90;;;;;;5091783;28;20055;-68
2023/12/23 09:44:35;;;;;;;2.33;0.98;;;11.40;99.90;;;;;;5093925;28;20036;-68
2023/12/23 09:47:01;;;;;;;2.15;0.73;;;11.40;99.90;;;;;;5087699;28;20026;-68
2023/12/23 09:49:28;;;;;;;7.10;1.40;;;11.50;99.90;;;;;;5071785;28;20035;-69
2023/12/23 09:51:55;;;;;;;4.13;1.33;;;11.60;99.90;;;;;;5093597;28;20073;-70
2023/12/23 09:54:26;;;;;;;0.47;0.32;;;11.70;99.90;;;;;;5078850;28;20604;-71
2023/12/23 09:56:51;;;;;;;2.80;0.50;;;11.70;99.90;;;;;;5067616;28;20039;-70
2023/12/23 09:59:19;;;;;;;4.68;0.73;;;11.80;99.90;;;;;;5093438;28;20028;-69
2023/12/23 10:01:44;;;;;;;5.40;1.60;;;11.90;99.90;;;;;;5093745;28;20043;-68
2023/12/23 10:04:10;;;;;;;0.95;0.60;;;11.80;99.90;;;;;;5079043;28;20457;-69
2023/12/23 10:06:36;;;;;;;6.07;1.75;;;11.80;99.90;;;;;;5093556;28;20075;-70
2023/12/23 10:09:03;;;;;;;14.18;1.83;;;11.80;99.90;;;;;;5093222;28;20036;-69
2023/12/23 10:11:30;;;;;;;0.30;0.30;;;11.80;99.90;;;;;;5093455;28;20042;-69
2023/12/23 10:13:56;;;;;;;2.60;1.00;;;11.80;99.90;;;;;;5093284;28;20028;-69
2023/12/23 10:16:22;;;;;;;1.58;1.10;;;11.90;99.90;;;;;;5079402;28;20028;-69
2023/12/23 10:18:48;;;;;;;16.05;1.33;;;11.90;99.90;;;;;;5093130;28;20028;-69
2023/12/23 10:21:14;;;;;;;9.55;1.23;;;11.90;99.90;;;;;;5092877;28;20629;-70
2023/12/23 10:23:40;;;;;;;1.75;0.45;;;11.90;99.90;;;;;;5093314;28;20377;-70
2023/12/23 10:26:06;;;;;;;1.35;0.75;;;12.00;99.90;;;;;;5093376;28;20016;-69
2023/12/23 10:28:35;;;;;;;7.93;1.88;;;12.00;99.90;;;;;;5093097;28;20060;-69
2023/12/23 10:31:01;;;;;;;1.98;0.20;;;12.00;99.90;;;;;;5093236;28;20075;-69
2023/12/23 10:33:30;;;;;;;2.67;1.38;;;11.90;99.90;;;;;;5092860;28;20537;-69
2023/12/23 10:35:58;;;;;;;7.45;0.93;;;11.90;99.90;;;;;;5092979;28;20384;-70
2023/12/23 10:38:26;;;;;;;1.13;0.65;;;11.90;99.90;;;;;;5093093;28;20048;-70
2023/12/23 10:41:07;;;;;;;1.35;0.60;;;11.90;99.90;;;;;;5084338;28;20021;-70
2023/12/23 10:43:34;;;;;;;6.80;1.10;;;11.90;99.90;;;;;;5089459;28;20055;-69
2023/12/23 10:46:01;;;;;;;0.20;0.20;;;11.90;99.90;;;;;;5092960;28;20065;-69
2023/12/23 10:48:31;;;;;;;0.30;0.20;;;11.90;99.90;;;;;;5062615;28;20025;-69
2023/12/23 10:53:35;;;;;;;1.10;0.40;;;12.00;99.90;;;;;;5050813;28;20045;-70
2023/12/23 10:56:01;;;;;;;1.65;0.55;;;12.00;99.90;;;;;;5052700;28;20028;-68
2023/12/23 10:58:29;;;;;;;7.38;1.27;;;12.00;99.90;;;;;;5052613;28;20037;-68
2023/12/23 11:00:56;;;;;;;1.23;0.60;;;12.00;99.90;;;;;;5052294;28;20036;-69
2023/12/23 11:03:24;;;;;;;0.10;0.10;;;12.00;99.90;;;;;;5052170;28;20056;-71
2023/12/23 11:05:51;;;;;;;3.97;0.90;;;12.00;99.90;;;;;;5052399;28;20470;-70
2023/12/23 11:08:21;;;;;;;5.75;0.85;;;11.90;99.90;;;;;;5052767;28;20063;-69
2023/12/23 11:10:48;;;;;;;6.03;0.57;;;11.90;99.90;;;;;;5052066;28;20468;-70
2023/12/23 11:13:15;;;;;;;0.82;0.57;;;11.90;99.90;;;;;;5052607;28;20425;-69
2023/12/23 11:15:42;;;;;;;0.00;0.00;;;12.00;99.90;;;;;;5041267;28;20022;-71
2023/12/23 11:18:11;;;;;;;1.75;0.60;;;12.00;99.90;;;;;;5049733;28;20021;-69
2023/12/23 11:20:44;;;;;;;4.20;1.00;;;12.10;99.90;;;;;;5052257;28;20033;-71
2023/12/23 11:23:32;;;;;;;3.10;0.65;;;12.10;99.90;;;;;;5052429;28;20452;-69
2023/12/23 11:25:58;;;;;;;0.52;0.40;;;12.10;99.90;;;;;;5052268;28;20105;-71
2023/12/23 11:28:36;;;;;;;1.05;0.95;;;12.20;99.90;;;;;;5052418;28;20029;-71
2023/12/23 11:31:03;;;;;;;1.08;0.63;;;12.20;99.90;;;;;;5054299;28;20385;-70
2023/12/23 11:33:36;;;;;;;3.92;0.80;;;12.20;99.90;;;;;;5056209;28;20126;-70
2023/12/23 11:36:02;;;;;;;4.57;1.20;;;12.30;99.90;;;;;;5056010;28;20052;-71
2023/12/23 11:38:29;;;;;;;1.98;0.93;;;12.40;99.90;;;;;;5055966;28;20033;-72
2023/12/23 11:40:55;;;;;;;0.45;0.40;;;12.50;99.90;;;;;;5055687;28;20024;-69
2023/12/23 11:43:22;;;;;;;7.55;1.65;;;12.60;99.90;;;;;;5056059;28;20056;-70
2023/12/23 11:45:50;;;;;;;5.32;1.17;;;12.80;99.90;;;;;;5055709;28;20017;-71
2023/12/23 11:48:20;;;;;;;2.88;0.90;;;12.90;99.90;;;;;;5056051;28;20083;-71
2023/12/23 11:50:46;;;;;;;3.53;0.93;;;12.90;99.90;;;;;;5055264;28;20496;-70
2023/12/23 11:53:14;;;;;;;0.63;0.45;;;12.90;99.90;;;;;;5055775;28;20060;-71
2023/12/23 11:55:41;;;;;;;0.98;0.38;;;12.70;99.90;;;;;;5055635;28;20028;-69
2023/12/23 11:58:07;;;;;;;5.00;1.90;;;12.90;99.90;;;;;;5055761;28;20389;-70
2023/12/23 12:00:36;;;;;;;4.43;1.35;;;13.20;99.90;;;;;;5054255;28;20063;-71
2023/12/23 12:03:04;;;;;;;0.85;0.25;;;13.30;99.90;;;;;;5054292;28;20064;-70
2023/12/23 12:05:30;;;;;;;6.13;0.75;;;13.20;99.90;;;;;;5055575;28;20029;-70
2023/12/23 12:07:56;;;;;;;2.30;0.70;;;12.90;99.90;;;;;;5055733;28;20427;-70
2023/12/23 12:10:23;;;;;;;2.75;0.38;;;12.60;99.90;;;;;;5055773;28;20473;-70
2023/12/23 12:12:49;;;;;;;20.90;5.47;;;12.60;99.90;;;;;;5054129;28;20029;-70
2023/12/23 12:15:15;;;;;;;0.05;0.05;;;12.60;99.90;;;;;;5046448;28;20038;-71
2023/12/23 12:17:41;;;;;;;2.47;0.20;;;12.40;99.90;;;;;;5047947;28;20029;-70
2023/12/23 12:20:08;;;;;;;2.75;0.75;;;12.40;99.90;;;;;;5055168;28;20032;-70
2023/12/23 12:22:33;;;;;;;2.47;0.60;;;12.40;99.90;;;;;;5055479;28;20029;-70
2023/12/23 12:24:59;;;;;;;0.13;0.13;;;12.30;99.90;;;;;;5055422;28;20032;-70
2023/12/23 12:27:25;;;;;;;0.80;0.32;;;12.30;99.90;;;;;;5055529;28;20029;-72
2023/12/23 12:29:53;;;;;;;2.17;1.10;;;12.30;99.90;;;;;;5055066;28;20126;-70
2023/12/23 12:32:22;;;;;;;0.30;0.28;;;12.20;99.90;;;;;;5055238;28;20023;-70
2023/12/23 12:34:47;;;;;;;2.15;0.75;;;12.20;99.90;;;;;;5055297;28;20359;-70
2023/12/23 12:37:13;;;;;;;0.57;0.30;;;12.10;99.90;;;;;;5055305;28;20059;-69
2023/12/23 12:39:39;;;;;;;0.10;0.10;;;12.20;99.90;;;;;;5055077;28;20381;-69
2023/12/23 12:42:05;;;;;;;0.10;0.10;;;12.10;99.90;;;;;;5053467;28;20521;-71
2023/12/23 12:44:33;;;;;;;4.47;0.90;;;12.10;99.90;;;;;;5054956;28;20040;-70